Time;durP1;ratioP1;P1;durP2;ratioP2;P2;SDS_P1;SDS_P2;PMS_P1;PMS_P2;Temp;Humidity;BMP_temperature;BMP_pressure;BME280_temperature;BME280_humidity;BME280_pressure;Samples;Min_cycle;Max_cycle;Signal;HPM_P1;HPM_P2
2022/01/09 00:00:27;;;;;;;3.90;2.05;;;;;;;18.58;26.27;99640.44;5031805;28;20399;-65
2022/01/09 00:02:53;;;;;;;3.55;1.98;;;;;;;18.59;26.33;99644.81;5016763;28;20045;-65
2022/01/09 00:05:19;;;;;;;4.72;2.67;;;;;;;18.60;26.29;99643.75;5012595;28;20034;-65
2022/01/09 00:07:45;;;;;;;4.97;2.28;;;;;;;18.60;26.08;99642.94;5011977;28;20045;-65
2022/01/09 00:10:11;;;;;;;4.43;2.22;;;;;;;18.60;26.42;99635.72;5012327;28;20561;-65
2022/01/09 00:12:37;;;;;;;2.60;1.60;;;;;;;18.58;26.24;99643.13;5014830;28;20030;-65
2022/01/09 00:15:03;;;;;;;4.68;2.22;;;;;;;18.57;26.16;99645.97;5031731;28;20029;-66
2022/01/09 00:17:29;;;;;;;2.67;1.92;;;;;;;18.59;26.17;99646.63;5032306;28;20103;-65
2022/01/09 00:19:54;;;;;;;6.90;2.03;;;;;;;18.57;26.35;99638.78;5031515;28;20037;-72
2022/01/09 00:22:30;;;;;;;3.50;2.40;;;;;;;18.59;26.10;99649.31;5032039;28;20029;-65
2022/01/09 00:24:56;;;;;;;3.28;2.38;;;;;;;18.60;25.97;99643.75;5024118;28;20044;-65
2022/01/09 00:27:21;;;;;;;5.45;2.42;;;;;;;18.62;25.77;99643.63;5029073;28;20029;-65
2022/01/09 00:29:46;;;;;;;4.70;2.08;;;;;;;18.65;25.74;99629.03;5030175;28;20041;-64
2022/01/09 00:32:12;;;;;;;3.33;2.53;;;;;;;18.67;25.85;99614.47;5028725;28;20064;-64
2022/01/09 00:34:37;;;;;;;5.03;2.22;;;;;;;18.70;25.65;99629.38;5030470;28;20080;-66
2022/01/09 00:37:03;;;;;;;7.03;2.35;;;;;;;18.70;25.55;99624.81;5029697;28;20057;-65
2022/01/09 00:39:29;;;;;;;3.65;2.60;;;;;;;18.73;25.72;99634.38;5028014;28;20511;-65
2022/01/09 00:41:54;;;;;;;3.70;2.15;;;;;;;18.72;25.64;99628.16;5028353;28;20033;-65
2022/01/09 00:44:20;;;;;;;3.85;2.03;;;;;;;18.73;25.59;99631.69;5034139;28;20033;-65
2022/01/09 00:46:45;;;;;;;4.60;2.00;;;;;;;18.72;25.83;99632.72;5034167;28;20053;-65
2022/01/09 00:49:11;;;;;;;3.03;2.35;;;;;;;18.70;25.64;99629.38;5034015;28;20127;-64
2022/01/09 00:51:36;;;;;;;4.65;2.33;;;;;;;18.73;25.68;99632.53;5034186;28;20392;-65
2022/01/09 00:54:02;;;;;;;3.50;2.08;;;;;;;18.71;25.65;99626.50;5033416;28;20029;-65
2022/01/09 00:56:27;;;;;;;4.30;2.13;;;;;;;18.75;25.70;99630.50;5033956;28;20030;-64
2022/01/09 00:58:53;;;;;;;4.43;2.35;;;;;;;18.78;25.71;99634.69;5033155;28;20045;-64
2022/01/09 01:01:18;;;;;;;3.00;2.05;;;;;;;18.79;25.70;99614.91;5033895;28;20025;-64
2022/01/09 01:03:44;;;;;;;3.80;2.67;;;;;;;18.80;25.69;99627.31;5032955;28;20033;-64
2022/01/09 01:06:09;;;;;;;3.22;2.22;;;;;;;18.79;25.79;99606.06;5033879;28;20392;-63
2022/01/09 01:08:35;;;;;;;4.00;2.53;;;;;;;18.79;25.81;99614.91;5033672;28;20041;-65
2022/01/09 01:11:01;;;;;;;6.22;2.63;;;;;;;18.79;25.68;99601.50;5034114;28;20033;-64
2022/01/09 01:13:27;;;;;;;3.03;2.25;;;;;;;18.80;25.51;99591.66;5031557;28;20068;-64
2022/01/09 01:15:52;;;;;;;5.25;2.45;;;;;;;18.80;25.54;99595.16;5033882;28;20112;-64
2022/01/09 01:18:18;;;;;;;3.55;2.30;;;;;;;18.83;25.69;99604.69;5027097;28;20384;-63
2022/01/09 01:20:43;;;;;;;6.97;2.85;;;;;;;18.82;25.57;99601.16;5033615;28;20033;-63
2022/01/09 01:23:09;;;;;;;4.38;2.88;;;;;;;18.85;25.53;99602.66;5030226;28;20059;-62
2022/01/09 01:25:36;;;;;;;4.50;2.90;;;;;;;18.84;25.48;99592.94;5033340;28;20061;-63
2022/01/09 01:28:02;;;;;;;6.40;2.60;;;;;;;18.85;25.56;99597.31;5023823;28;20428;-63
2022/01/09 01:30:28;;;;;;;4.72;2.70;;;;;;;18.83;25.37;99588.59;5032392;28;20474;-63
2022/01/09 01:32:53;;;;;;;4.10;2.83;;;;;;;18.82;25.54;99589.63;5032840;28;20117;-63
2022/01/09 01:35:19;;;;;;;3.70;2.42;;;;;;;18.82;25.53;99587.78;5033336;28;20045;-64
2022/01/09 01:37:45;;;;;;;4.10;2.92;;;;;;;18.83;25.28;99591.28;5030151;28;20029;-63
2022/01/09 01:40:19;;;;;;;6.70;2.92;;;;;;;18.81;25.22;99582.59;5027773;28;20042;-64
2022/01/09 01:42:46;;;;;;;4.03;2.50;;;;;;;18.78;25.06;99583.75;5031464;28;20054;-64
2022/01/09 01:45:12;;;;;;;5.60;3.90;;;;;;;18.75;25.13;99587.63;5031067;28;20075;-63
2022/01/09 01:47:39;;;;;;;3.67;2.40;;;;;;;18.73;24.98;99578.09;5030164;28;20044;-64
2022/01/09 01:50:07;;;;;;;5.13;2.63;;;;;;;18.70;25.32;99575.75;5034125;28;20044;-64
2022/01/09 01:52:40;;;;;;;3.97;2.75;;;;;;;18.66;25.00;99563.69;5033257;28;20095;-64
2022/01/09 01:55:08;;;;;;;5.90;3.10;;;;;;;18.63;24.99;99569.41;5033794;28;20044;-64
2022/01/09 01:57:35;;;;;;;5.35;2.97;;;;;;;18.60;25.05;99562.56;5032956;28;20057;-64
2022/01/09 02:00:02;;;;;;;4.45;2.47;;;;;;;18.57;25.06;99555.72;5033948;28;20033;-64
2022/01/09 02:02:28;;;;;;;3.15;2.20;;;;;;;18.54;25.16;99556.03;5034873;28;20408;-64
2022/01/09 02:04:54;;;;;;;5.72;3.33;;;;;;;18.55;24.93;99554.19;5033900;28;20029;-64
2022/01/09 02:07:20;;;;;;;3.95;2.85;;;;;;;18.53;24.84;99549.00;5021071;28;20456;-64
2022/01/09 02:09:45;;;;;;;3.25;2.40;;;;;;;18.53;24.91;99543.66;5026211;28;20040;-64
2022/01/09 02:12:11;;;;;;;5.57;2.55;;;;;;;18.51;24.98;99540.31;5022640;28;20033;-63
2022/01/09 02:14:38;;;;;;;4.65;3.05;;;;;;;18.51;25.11;99534.94;5053130;28;20047;-64
2022/01/09 02:17:06;;;;;;;5.13;3.13;;;;;;;18.48;24.81;99534.47;5053538;28;20032;-64
2022/01/09 02:19:31;;;;;;;4.30;2.75;;;;;;;18.47;24.94;99541.66;5031662;28;20037;-64
2022/01/09 02:21:59;;;;;;;3.80;2.63;;;;;;;18.44;24.88;99534.81;5033312;28;20251;-63
2022/01/09 02:24:25;;;;;;;3.55;2.58;;;;;;;18.44;24.95;99537.47;5048639;28;20396;-64
2022/01/09 02:26:51;;;;;;;5.97;2.80;;;;;;;18.44;24.84;99540.16;5053274;28;20488;-64
2022/01/09 02:29:17;;;;;;;3.83;2.78;;;;;;;18.43;24.95;99535.81;5037553;28;20049;-64
2022/01/09 02:31:43;;;;;;;5.35;3.05;;;;;;;18.41;24.95;99540.50;5033313;28;20167;-64
2022/01/09 02:34:08;;;;;;;4.25;2.55;;;;;;;18.41;24.97;99547.72;5032692;28;20399;-64
2022/01/09 02:36:34;;;;;;;3.30;2.78;;;;;;;18.40;24.97;99548.72;5033054;28;20436;-64
2022/01/09 02:39:00;;;;;;;3.47;2.90;;;;;;;18.41;24.88;99529.78;5019942;28;20041;-64
2022/01/09 02:41:26;;;;;;;4.28;2.95;;;;;;;18.42;24.96;99530.63;5013016;28;20030;-64
2022/01/09 02:43:51;;;;;;;5.55;3.13;;;;;;;18.41;24.86;99529.78;5029126;28;20128;-63
2022/01/09 02:46:36;;;;;;;5.32;3.30;;;;;;;18.40;24.98;99529.97;5049776;28;20033;-63
2022/01/09 02:49:07;;;;;;;4.00;2.60;;;;;;;18.38;24.82;99527.44;5031229;28;20451;-64
2022/01/09 02:51:36;;;;;;;4.72;2.85;;;;;;;18.39;25.00;99529.13;5013010;28;20042;-63
2022/01/09 02:55:05;;;;;;;4.28;3.58;;;;;;;18.40;24.97;99535.31;5027370;28;20037;-64
2022/01/09 02:56:47;;;;;;;4.10;3.08;;;;;;;18.39;24.84;99529.13;5031438;28;20373;-64
2022/01/09 02:59:13;;;;;;;5.20;3.42;;;;;;;18.36;24.94;99529.47;5044615;28;20036;-64
2022/01/09 03:01:38;;;;;;;5.85;3.17;;;;;;;18.37;24.80;99528.47;5052425;28;20029;-63
2022/01/09 03:04:04;;;;;;;5.32;3.78;;;;;;;18.38;24.86;99515.91;5051877;28;20035;-64
2022/01/09 03:06:29;;;;;;;4.53;3.10;;;;;;;18.39;25.03;99513.03;5046201;28;20436;-63
2022/01/09 03:09:00;;;;;;;4.43;3.40;;;;;;;18.39;25.15;99509.53;5039688;28;20414;-64
2022/01/09 03:11:25;;;;;;;6.35;3.70;;;;;;;18.37;25.02;99511.56;5052671;28;20037;-63
2022/01/09 03:13:51;;;;;;;5.40;3.15;;;;;;;18.37;25.16;99506.19;5020110;28;20036;-64
2022/01/09 03:16:16;;;;;;;7.18;3.85;;;;;;;18.37;25.00;99516.91;5012580;28;20038;-63
2022/01/09 03:18:42;;;;;;;5.53;3.63;;;;;;;18.36;24.85;99515.25;5034058;28;20060;-63
2022/01/09 03:21:07;;;;;;;4.78;3.38;;;;;;;18.38;24.85;99513.22;5037896;28;20041;-63
2022/01/09 03:23:33;;;;;;;6.07;3.65;;;;;;;18.36;24.89;99513.41;5031475;28;20091;-63
2022/01/09 03:25:58;;;;;;;4.97;3.00;;;;;;;18.36;25.03;99513.41;5032598;28;20029;-64
2022/01/09 03:28:24;;;;;;;4.90;3.55;;;;;;;18.35;24.93;99510.88;5040403;28;20021;-64
2022/01/09 03:30:49;;;;;;;4.97;3.20;;;;;;;18.35;24.73;99505.53;5020946;28;20392;-64
2022/01/09 03:33:15;;;;;;;5.05;3.72;;;;;;;18.34;24.83;99506.53;5012722;28;20489;-65
2022/01/09 03:35:40;;;;;;;5.97;3.47;;;;;;;18.33;24.84;99508.38;5012730;28;20045;-63
2022/01/09 03:38:06;;;;;;;4.53;3.17;;;;;;;18.32;24.84;99497.84;5016893;28;20053;-64
2022/01/09 03:40:31;;;;;;;6.20;3.90;;;;;;;18.33;24.86;99500.34;5012715;28;20092;-65
2022/01/09 03:42:57;;;;;;;4.63;3.03;;;;;;;18.34;24.86;99506.53;5023238;28;20400;-64
2022/01/09 03:45:24;;;;;;;5.55;3.80;;;;;;;18.34;24.61;99506.53;5021695;28;20045;-64
2022/01/09 03:47:51;;;;;;;5.40;3.35;;;;;;;18.33;24.64;99489.66;5012300;28;20030;-64
2022/01/09 03:50:17;;;;;;;5.28;3.20;;;;;;;18.34;24.77;99494.00;5012395;28;20076;-64
2022/01/09 03:52:43;;;;;;;3.92;3.13;;;;;;;18.36;24.70;99478.59;5013475;28;20026;-64
2022/01/09 03:55:12;;;;;;;4.95;3.58;;;;;;;18.37;24.85;99482.94;5047699;28;20557;-64
2022/01/09 03:57:38;;;;;;;5.28;3.30;;;;;;;18.37;24.96;99480.25;5031466;28;20037;-64
2022/01/09 04:00:06;;;;;;;5.85;3.50;;;;;;;18.37;24.63;99484.75;5031755;28;20037;-65
2022/01/09 04:02:32;;;;;;;4.00;2.92;;;;;;;18.36;24.77;99493.81;5037528;28;20035;-64
2022/01/09 04:04:58;;;;;;;5.18;3.10;;;;;;;18.35;24.70;99487.63;5044842;28;20063;-64
2022/01/09 04:07:23;;;;;;;6.10;3.70;;;;;;;18.36;24.74;99488.44;5030206;28;20041;-64
2022/01/09 04:09:49;;;;;;;5.40;3.67;;;;;;;18.36;24.71;99496.50;5012332;28;20117;-65
2022/01/09 04:12:18;;;;;;;5.28;3.97;;;;;;;18.39;24.70;99502.31;5012325;28;20506;-64
2022/01/09 04:14:46;;;;;;;3.40;2.35;;;;;;;18.38;24.59;99492.63;5012480;28;20458;-65
2022/01/09 04:17:19;;;;;;;5.65;3.83;;;;;;;18.36;24.46;99509.88;5019908;28;20029;-64
2022/01/09 04:19:45;;;;;;;4.18;2.95;;;;;;;18.34;24.54;99493.16;5037674;28;20419;-65
2022/01/09 04:22:11;;;;;;;3.90;2.88;;;;;;;18.35;24.73;99489.47;5035886;28;20118;-64
2022/01/09 04:24:37;;;;;;;5.10;2.95;;;;;;;18.35;24.73;99497.50;5035868;28;20049;-65
2022/01/09 04:27:02;;;;;;;4.20;2.85;;;;;;;18.35;24.48;99481.41;5034891;28;20405;-64
2022/01/09 04:29:28;;;;;;;4.28;2.72;;;;;;;18.36;24.65;99488.44;5035281;28;20029;-65
2022/01/09 04:31:54;;;;;;;4.43;2.65;;;;;;;18.35;24.63;99481.41;5035679;28;20025;-64
2022/01/09 04:34:19;;;;;;;4.60;2.50;;;;;;;18.36;24.26;99481.28;5034475;28;20037;-64
2022/01/09 04:36:45;;;;;;;4.88;3.13;;;;;;;18.37;24.42;99480.25;5035398;28;20059;-64
2022/01/09 04:39:10;;;;;;;2.78;2.10;;;;;;;18.34;24.32;99467.22;5026085;28;20041;-64
2022/01/09 04:41:36;;;;;;;3.60;2.50;;;;;;;18.34;24.47;99467.22;5015800;28;20040;-65
2022/01/09 04:44:01;;;;;;;5.00;2.50;;;;;;;18.36;24.53;99477.75;5027263;28;20103;-64
2022/01/09 04:46:38;;;;;;;3.90;2.25;;;;;;;18.35;24.80;99463.53;5035108;28;20040;-65
2022/01/09 04:49:03;;;;;;;3.88;2.70;;;;;;;18.34;24.33;99461.00;5049732;28;20402;-64
2022/01/09 04:51:29;;;;;;;4.22;2.85;;;;;;;18.34;24.46;99469.03;5055392;28;20037;-64
2022/01/09 04:53:54;;;;;;;4.45;2.45;;;;;;;18.32;24.48;99463.88;5055251;28;20033;-64
2022/01/09 04:56:20;;;;;;;3.75;2.65;;;;;;;18.34;24.44;99452.97;5055149;28;20025;-64
2022/01/09 04:58:45;;;;;;;4.45;2.65;;;;;;;18.35;24.57;99460.84;5052440;28;20518;-64
2022/01/09 05:01:11;;;;;;;4.53;2.90;;;;;;;18.35;24.46;99442.09;5053319;28;20040;-64
2022/01/09 05:03:36;;;;;;;4.35;2.67;;;;;;;18.38;24.39;99448.94;5054648;28;20610;-65
2022/01/09 05:06:02;;;;;;;4.43;2.88;;;;;;;18.35;24.75;99449.28;5036086;28;20040;-64
2022/01/09 05:08:28;;;;;;;3.15;2.13;;;;;;;18.35;24.58;99454.63;5027764;28;20072;-64
2022/01/09 05:10:53;;;;;;;3.67;2.65;;;;;;;18.35;24.90;99460.00;5035658;28;20029;-64
2022/01/09 05:13:19;;;;;;;3.80;2.53;;;;;;;18.35;24.53;99454.63;5041578;28;20504;-64
2022/01/09 05:15:44;;;;;;;4.07;2.25;;;;;;;18.34;24.67;99461.00;5034859;28;20029;-64
2022/01/09 05:18:14;;;;;;;3.20;2.10;;;;;;;18.33;24.61;99462.00;5022626;28;20053;-64
2022/01/09 05:20:43;;;;;;;3.45;2.38;;;;;;;18.33;24.68;99459.31;5014705;28;20026;-64
2022/01/09 05:23:10;;;;;;;4.07;2.75;;;;;;;18.33;24.58;99464.69;5026176;28;20041;-64
2022/01/09 05:25:35;;;;;;;6.85;2.78;;;;;;;18.33;24.66;99470.03;5034392;28;20033;-64
2022/01/09 05:28:01;;;;;;;5.53;2.80;;;;;;;18.34;24.65;99455.63;5025282;28;20041;-64
2022/01/09 05:30:27;;;;;;;4.43;2.83;;;;;;;18.34;24.55;99461.84;5023556;28;20029;-64
2022/01/09 05:32:52;;;;;;;4.68;2.75;;;;;;;18.38;24.66;99471.19;5036346;28;20475;-65
2022/01/09 05:35:18;;;;;;;3.45;2.20;;;;;;;18.38;24.65;99475.72;5054222;28;20044;-65
2022/01/09 05:37:43;;;;;;;5.35;2.75;;;;;;;18.38;24.69;99476.53;5047122;28;20033;-64
2022/01/09 05:40:09;;;;;;;3.67;2.15;;;;;;;18.41;24.61;99480.75;5014779;28;20083;-64
2022/01/09 05:42:35;;;;;;;3.97;2.70;;;;;;;18.42;24.58;99483.25;5017551;28;20471;-64
2022/01/09 05:45:02;;;;;;;4.88;2.85;;;;;;;18.40;24.71;99479.88;5046328;28;20090;-64
2022/01/09 05:47:28;;;;;;;3.35;2.45;;;;;;;18.39;24.65;99482.75;5033724;28;20044;-64
2022/01/09 05:49:53;;;;;;;3.78;2.70;;;;;;;18.38;24.39;99481.09;5034166;28;20108;-64
2022/01/09 05:52:19;;;;;;;5.05;3.00;;;;;;;18.36;24.55;99480.41;5030976;28;20439;-64
2022/01/09 05:54:44;;;;;;;4.68;2.67;;;;;;;18.36;24.64;99491.97;5041302;28;20033;-64
2022/01/09 05:57:10;;;;;;;4.47;2.50;;;;;;;18.36;24.65;99499.16;5037153;28;20033;-65
2022/01/09 05:59:35;;;;;;;3.45;2.55;;;;;;;18.34;24.74;99498.50;5042077;28;20052;-64
2022/01/09 06:02:01;;;;;;;5.82;2.83;;;;;;;18.35;24.65;99494.81;5033234;28;20033;-64
2022/01/09 06:04:27;;;;;;;2.80;2.20;;;;;;;18.33;24.41;99503.03;5036197;28;20045;-64
2022/01/09 06:06:54;;;;;;;4.70;2.72;;;;;;;18.34;24.55;99501.19;5033762;28;20055;-64
2022/01/09 06:09:20;;;;;;;4.78;2.80;;;;;;;18.30;24.41;99493.50;5033415;28;20034;-64
2022/01/09 06:11:46;;;;;;;3.72;2.75;;;;;;;18.33;24.34;99502.19;5033026;28;20041;-64
2022/01/09 06:14:11;;;;;;;5.68;2.58;;;;;;;18.32;24.33;99497.84;5024307;28;20619;-65
2022/01/09 06:16:37;;;;;;;5.22;2.50;;;;;;;18.30;24.54;99500.69;5013713;28;20029;-64
2022/01/09 06:19:03;;;;;;;5.55;2.72;;;;;;;18.28;24.53;99498.19;5013837;28;20034;-65
2022/01/09 06:21:28;;;;;;;4.28;3.00;;;;;;;18.29;24.40;99489.16;5013605;28;20033;-65
2022/01/09 06:23:55;;;;;;;3.75;2.80;;;;;;;18.30;24.08;99489.97;5040424;28;20033;-65
2022/01/09 06:26:20;;;;;;;3.67;2.75;;;;;;;18.33;24.09;99502.19;5052997;28;20024;-65
2022/01/09 06:28:46;;;;;;;5.32;2.85;;;;;;;18.34;24.11;99501.19;5046634;28;20128;-65
2022/01/09 06:31:11;;;;;;;7.85;2.63;;;;;;;18.34;24.09;99487.78;5016586;28;20110;-65
2022/01/09 06:33:37;;;;;;;5.80;3.47;;;;;;;18.38;24.24;99497.16;5024630;28;20041;-65
2022/01/09 06:36:03;;;;;;;6.43;2.60;;;;;;;18.36;24.40;99499.16;5053341;28;20033;-65
2022/01/09 06:38:28;;;;;;;4.80;2.85;;;;;;;18.38;24.17;99492.63;5034061;28;20040;-65
2022/01/09 06:40:54;;;;;;;3.35;2.70;;;;;;;18.37;23.94;99507.03;5033356;28;20043;-65
2022/01/09 06:43:19;;;;;;;3.17;2.60;;;;;;;18.39;24.10;99504.19;5032480;28;20147;-65
2022/01/09 06:45:45;;;;;;;5.13;3.25;;;;;;;18.42;23.96;99501.16;5036953;28;20506;-65
2022/01/09 06:48:10;;;;;;;3.65;2.75;;;;;;;18.42;23.90;99503.84;5032801;28;20091;-65
2022/01/09 06:50:36;;;;;;;5.13;3.17;;;;;;;18.42;23.84;99499.31;5032915;28;20037;-65
2022/01/09 06:53:01;;;;;;;5.07;3.03;;;;;;;18.44;23.90;99491.94;5040093;28;20029;-65
2022/01/09 06:55:27;;;;;;;4.57;2.70;;;;;;;18.44;23.88;99507.19;5053081;28;20040;-65
2022/01/09 06:57:54;;;;;;;4.00;2.80;;;;;;;18.45;23.77;99504.31;5043656;28;20037;-65
2022/01/09 07:00:20;;;;;;;4.00;2.88;;;;;;;18.45;23.65;99498.97;5021206;28;20072;-65
2022/01/09 07:02:46;;;;;;;4.80;2.70;;;;;;;18.47;23.89;99506.81;5017557;28;20177;-65
2022/01/09 07:05:12;;;;;;;3.92;2.75;;;;;;;18.48;23.80;99503.13;5032900;28;20052;-65
2022/01/09 07:07:38;;;;;;;4.47;2.85;;;;;;;18.51;23.70;99496.63;5037292;28;20037;-65
2022/01/09 07:10:04;;;;;;;3.40;2.55;;;;;;;18.48;23.80;99500.47;5052566;28;20039;-65
2022/01/09 07:12:30;;;;;;;4.35;2.80;;;;;;;18.48;23.75;99507.66;5051125;28;20075;-64
2022/01/09 07:14:55;;;;;;;4.47;2.85;;;;;;;18.48;23.67;99513.84;5012943;28;20113;-64
2022/01/09 07:17:21;;;;;;;3.90;2.85;;;;;;;18.50;23.56;99503.81;5012905;28;20052;-63
2022/01/09 07:19:46;;;;;;;4.70;2.95;;;;;;;18.52;23.61;99492.94;5033253;28;20041;-64
2022/01/09 07:22:12;;;;;;;5.25;3.30;;;;;;;18.51;23.71;99493.94;5031193;28;20033;-63
2022/01/09 07:24:38;;;;;;;4.13;2.78;;;;;;;18.49;23.67;99491.41;5012651;28;20041;-64
2022/01/09 07:27:03;;;;;;;6.22;2.80;;;;;;;18.52;23.55;99491.06;5012485;28;20061;-62
2022/01/09 07:29:29;;;;;;;4.75;2.90;;;;;;;18.53;23.60;99495.44;5045750;28;20112;-62
2022/01/09 07:31:55;;;;;;;4.47;2.60;;;;;;;18.54;23.69;99485.53;5052298;28;20499;-63
2022/01/09 07:34:21;;;;;;;4.28;3.03;;;;;;;18.54;23.63;99474.81;5036970;28;20033;-64
2022/01/09 07:36:47;;;;;;;3.88;3.15;;;;;;;18.55;23.40;99482.69;5031057;28;20500;-61
2022/01/09 07:39:13;;;;;;;4.47;3.30;;;;;;;18.58;23.53;99481.50;5035822;28;20040;-62
2022/01/09 07:41:40;;;;;;;4.32;2.85;;;;;;;18.58;23.46;99474.31;5052444;28;20399;-63
2022/01/09 07:44:06;;;;;;;4.43;2.90;;;;;;;18.58;23.39;99485.03;5051704;28;20071;-63
2022/01/09 07:46:31;;;;;;;3.42;2.47;;;;;;;18.58;23.44;99481.50;5052257;28;20028;-63
2022/01/09 07:48:58;;;;;;;3.22;2.58;;;;;;;18.59;23.39;99484.03;5036381;28;20083;-63
2022/01/09 07:51:23;;;;;;;3.72;2.67;;;;;;;18.58;23.72;99479.66;5033480;28;20029;-63
2022/01/09 07:53:49;;;;;;;3.85;2.88;;;;;;;18.60;23.44;99496.38;5035416;28;20053;-63
2022/01/09 07:56:14;;;;;;;4.45;2.88;;;;;;;18.60;23.40;99491.03;5036543;28;20377;-64
2022/01/09 07:58:40;;;;;;;4.88;3.05;;;;;;;18.61;23.53;99508.78;5025239;28;20029;-63
2022/01/09 08:01:06;;;;;;;4.47;2.70;;;;;;;18.61;23.51;99495.38;5016120;28;20493;-63
2022/01/09 08:03:31;;;;;;;4.00;2.55;;;;;;;18.60;23.45;99488.34;5018859;28;20120;-63
2022/01/09 08:05:57;;;;;;;4.40;2.35;;;;;;;18.64;23.67;99488.00;5029721;28;20045;-64
2022/01/09 08:08:23;;;;;;;5.07;3.30;;;;;;;18.63;23.73;99489.00;5021907;28;20080;-63
2022/01/09 08:10:48;;;;;;;4.28;2.53;;;;;;;18.64;23.72;99488.00;5016111;28;20029;-62
2022/01/09 08:13:14;;;;;;;3.80;2.80;;;;;;;18.66;23.52;99486.00;5031390;28;20072;-64
2022/01/09 08:15:39;;;;;;;3.80;2.83;;;;;;;18.66;23.56;99496.72;5021610;28;20435;-66
2022/01/09 08:18:05;;;;;;;4.18;3.08;;;;;;;18.66;23.56;99494.03;5017007;28;20504;-65
2022/01/09 08:20:31;;;;;;;5.40;2.95;;;;;;;18.66;23.56;99489.53;5015832;28;20037;-63
2022/01/09 08:22:57;;;;;;;5.70;3.25;;;;;;;18.67;23.56;99487.66;5042545;28;20033;-63
2022/01/09 08:25:23;;;;;;;4.45;3.28;;;;;;;18.66;23.37;99486.84;5055643;28;20166;-64
2022/01/09 08:27:48;;;;;;;4.55;3.10;;;;;;;18.66;23.66;99477.94;5043726;28;20192;-63
2022/01/09 08:30:15;;;;;;;4.45;2.78;;;;;;;18.67;23.73;99476.94;5017188;28;20514;-64
2022/01/09 08:32:41;;;;;;;3.67;2.80;;;;;;;18.67;23.57;99477.78;5034292;28;20043;-64
2022/01/09 08:35:07;;;;;;;4.00;2.83;;;;;;;18.68;23.56;99471.38;5036671;28;20116;-64
2022/01/09 08:37:33;;;;;;;3.45;2.30;;;;;;;18.69;23.90;99466.88;5019221;28;20040;-64
2022/01/09 08:39:59;;;;;;;4.72;2.80;;;;;;;18.70;23.76;99464.00;5033354;28;20026;-64
2022/01/09 08:42:25;;;;;;;4.85;2.55;;;;;;;18.70;23.88;99465.88;5039820;28;20088;-64
2022/01/09 08:44:50;;;;;;;3.45;2.40;;;;;;;18.69;23.72;99461.53;5055363;28;20032;-64
2022/01/09 08:47:16;;;;;;;4.13;2.50;;;;;;;18.70;23.95;99468.56;5054886;28;20405;-63
2022/01/09 08:49:42;;;;;;;4.68;2.72;;;;;;;18.70;24.02;99460.50;5034480;28;20079;-64
2022/01/09 08:52:08;;;;;;;4.20;2.55;;;;;;;18.71;23.77;99463.00;5034253;28;20444;-64
2022/01/09 08:54:34;;;;;;;4.13;2.90;;;;;;;18.71;23.62;99465.69;5015440;28;20196;-64
2022/01/09 08:57:00;;;;;;;3.25;2.08;;;;;;;18.73;23.76;99474.38;5015447;28;20050;-64
2022/01/09 08:59:26;;;;;;;3.60;2.45;;;;;;;18.74;23.69;99481.41;5038854;28;20048;-64
2022/01/09 09:01:51;;;;;;;3.58;2.55;;;;;;;18.75;23.57;99472.38;5033919;28;20029;-64
2022/01/09 09:04:17;;;;;;;5.40;2.75;;;;;;;18.75;23.68;99474.19;5029634;28;20025;-64
2022/01/09 09:06:43;;;;;;;3.75;2.83;;;;;;;18.78;23.58;99473.84;5054443;28;20060;-64
2022/01/09 09:09:09;;;;;;;4.20;2.67;;;;;;;18.79;23.89;99480.06;5035175;28;20044;-62
2022/01/09 09:11:35;;;;;;;4.00;2.90;;;;;;;18.79;23.61;99478.22;5038906;28;20480;-65
2022/01/09 09:14:03;;;;;;;4.57;2.50;;;;;;;18.81;23.57;99480.72;5038833;28;20034;-64
2022/01/09 09:16:29;;;;;;;3.58;2.65;;;;;;;18.80;23.51;99474.53;5034503;28;20099;-64
2022/01/09 09:18:54;;;;;;;5.30;2.95;;;;;;;18.80;23.52;99477.19;5019297;28;20041;-64
2022/01/09 09:21:20;;;;;;;5.57;2.80;;;;;;;18.81;23.59;99475.38;5014912;28;20026;-64
2022/01/09 09:23:46;;;;;;;4.40;3.03;;;;;;;18.80;23.59;99477.19;5014670;28;20060;-64
2022/01/09 09:26:11;;;;;;;3.45;2.65;;;;;;;18.82;23.72;99479.72;5014696;28;20029;-64
2022/01/09 09:28:38;;;;;;;3.88;2.50;;;;;;;18.84;23.58;99478.53;5023937;28;20365;-64
2022/01/09 09:31:04;;;;;;;3.72;2.90;;;;;;;18.85;23.67;99477.53;5033742;28;20034;-64
2022/01/09 09:33:30;;;;;;;7.97;3.03;;;;;;;18.86;23.70;99462.25;5033068;28;20025;-64
2022/01/09 09:36:00;;;;;;;5.55;2.97;;;;;;;18.86;23.50;99463.09;5034489;28;20037;-64
2022/01/09 09:38:26;;;;;;;4.28;2.83;;;;;;;18.86;23.51;99471.16;5032527;28;20493;-65
2022/01/09 09:40:51;;;;;;;4.47;2.95;;;;;;;18.86;23.72;99463.09;5046665;28;20048;-64
2022/01/09 09:43:17;;;;;;;3.47;2.38;;;;;;;18.85;23.56;99461.44;5042987;28;20132;-64
2022/01/09 09:45:43;;;;;;;3.67;2.55;;;;;;;18.86;23.47;99456.91;5018090;28;20045;-64
2022/01/09 09:48:09;;;;;;;5.03;2.60;;;;;;;18.86;23.75;99454.22;5039783;28;20036;-64
2022/01/09 09:50:34;;;;;;;3.78;2.83;;;;;;;18.86;23.64;99441.66;5014385;28;20046;-62
2022/01/09 09:53:01;;;;;;;3.95;2.88;;;;;;;18.86;23.57;99444.34;5006943;28;20487;-62
2022/01/09 09:55:28;;;;;;;3.50;2.58;;;;;;;18.86;23.70;99449.69;5035101;28;20506;-63
2022/01/09 09:57:54;;;;;;;3.97;2.80;;;;;;;18.88;23.92;99454.88;5018860;28;20038;-63
2022/01/09 10:00:21;;;;;;;3.67;2.67;;;;;;;18.90;23.97;99452.84;5030751;28;20095;-63
2022/01/09 10:02:49;;;;;;;5.05;2.67;;;;;;;18.92;23.70;99451.66;5027595;28;20034;-63
2022/01/09 10:05:21;;;;;;;4.57;3.65;;;;;;;18.92;23.42;99451.66;5045547;28;20506;-64
2022/01/09 10:07:47;;;;;;;4.72;3.38;;;;;;;18.92;23.30;99443.63;5037455;28;20491;-65
2022/01/09 10:10:18;;;;;;;6.13;3.30;;;;;;;18.92;23.94;99451.66;5046468;28;20626;-64
2022/01/09 10:12:45;;;;;;;;;;;;;;;18.91;24.34;99449.97;5034305;28;20450;-63
2022/01/09 10:15:13;;;;;;;4.05;2.72;;;;;;;18.96;24.56;99448.66;5016605;28;19916;-64
2022/01/09 10:17:43;;;;;;;4.57;2.70;;;;;;;19.01;24.84;99443.59;5013792;28;20026;-64
2022/01/09 10:20:13;;;;;;;4.28;2.85;;;;;;;19.01;24.95;99438.25;5013966;28;20385;-64
2022/01/09 10:22:51;;;;;;;5.03;2.58;;;;;;;19.02;24.99;99440.75;5013806;28;20034;-64
2022/01/09 10:25:27;;;;;;;5.38;2.83;;;;;;;19.04;25.10;99443.25;5033325;28;20042;-64
2022/01/09 10:28:12;;;;;;;4.55;2.63;;;;;;;19.05;25.33;99445.75;5033017;28;20045;-64
2022/01/09 10:30:41;;;;;;;7.75;3.45;;;;;;;19.04;25.51;99440.56;5017558;28;20428;-64
2022/01/09 10:33:17;;;;;;;9.50;3.67;;;;;;;19.02;25.37;99438.06;5013510;28;20103;-63
2022/01/09 10:35:45;;;;;;;5.03;3.03;;;;;;;19.05;25.51;99447.56;5013073;28;20034;-63
2022/01/09 10:38:22;;;;;;;5.47;2.95;;;;;;;19.05;25.69;99444.91;5013168;28;20022;-64
2022/01/09 10:40:59;;;;;;;5.25;3.08;;;;;;;19.07;25.74;99445.56;5025960;28;20500;-63
2022/01/09 10:43:32;;;;;;;3.33;2.42;;;;;;;19.06;25.70;99443.88;5032137;28;20056;-63
2022/01/09 10:46:01;;;;;;;5.25;3.00;;;;;;;19.05;25.86;99440.38;5032583;28;20033;-62
2022/01/09 10:48:32;;;;;;;6.93;3.45;;;;;;;19.03;25.84;99433.53;5021450;28;20065;-61
2022/01/09 10:50:58;;;;;;;;;;;;;;;18.98;25.88;99430.56;5034072;28;20102;-62
2022/01/09 10:53:30;;;;;;;5.95;3.65;;;;;;;18.99;25.68;99426.84;5032251;28;19912;-62
2022/01/09 10:56:09;;;;;;;4.95;3.22;;;;;;;18.99;25.62;99429.53;5034129;28;20040;-64
2022/01/09 10:58:47;;;;;;;5.32;3.58;;;;;;;19.02;25.63;99434.56;5038864;28;20033;-64
2022/01/09 11:01:20;;;;;;;6.55;3.55;;;;;;;19.02;25.82;99434.56;5036431;28;20029;-63
2022/01/09 11:03:56;;;;;;;6.55;3.13;;;;;;;19.01;25.82;99427.53;5032515;28;20049;-63
2022/01/09 11:06:25;;;;;;;5.75;3.00;;;;;;;18.99;25.74;99418.81;5020835;28;20044;-64
2022/01/09 11:08:52;;;;;;;6.90;3.58;;;;;;;18.98;25.66;99417.97;5012500;28;20036;-63
2022/01/09 11:11:27;;;;;;;4.93;2.90;;;;;;;18.97;25.78;99405.56;5019091;28;20090;-63
2022/01/09 11:13:55;;;;;;;5.75;3.50;;;;;;;18.99;25.53;99408.09;5022103;28;20036;-65
2022/01/09 11:16:42;;;;;;;4.25;2.75;;;;;;;18.98;25.83;99409.91;5018026;28;20037;-65
2022/01/09 11:19:14;;;;;;;3.88;2.70;;;;;;;18.97;25.76;99408.25;5026149;28;20040;-65
2022/01/09 11:21:48;;;;;;;4.80;3.60;;;;;;;18.98;25.98;99398.38;5033259;28;20491;-65
2022/01/09 11:24:35;;;;;;;4.22;2.67;;;;;;;18.98;26.09;99404.56;5031804;28;20493;-65
2022/01/09 11:27:16;;;;;;;4.30;2.25;;;;;;;18.98;26.17;99404.56;5029627;28;20029;-65
2022/01/09 11:30:03;;;;;;;4.13;2.40;;;;;;;18.97;25.67;99399.38;5044651;28;20071;-65
2022/01/09 11:33:12;;;;;;;4.38;2.67;;;;;;;18.98;25.86;99401.06;5032827;28;20505;-64